This is the latest recevied weather packets stored in our database for station/object DL2DHM-13. If no packets are shown the sender has not sent any weather packets the latest 10 day(s).
| Time | Temp. | Humidity | Pressure | Rain* | Wind** | Luminosity | Snow |
|---|---|---|---|---|---|---|---|
| 1777409748 | 7.22° C | 60% | 1024.1 hPa | 0 mm | - | 0 W/m² | - |
| 1777408546 | 7.78° C | 59% | 1023.9 hPa | 0 mm | - | 0 W/m² | - |
| 1777407345 | 8.33° C | 56% | 1023.8 hPa | 0 mm | - | 0 W/m² | - |
| 1777404940 | 9.44° C | 53% | 1023.5 hPa | 0 mm | - | 0 W/m² | - |
| 1777404645 | 10° C | 52% | 1023.4 hPa | 0 mm | - | 0 W/m² | - |
| 1777403439 | 11.11° C | 46% | 1023.3 hPa | 0 mm | - | 0 W/m² | - |
| 1777401942 | 12.22° C | 42% | 1023.1 hPa | 0 mm | - | 0 W/m² | - |
| 1777399833 | 13.33° C | 39% | 1022.9 hPa | 0 mm | - | 14 W/m² | - |
| 1777398032 | 14.44° C | 38% | 1022.6 hPa | 0 mm | - | 26 W/m² | - |
| 1777397431 | 14.44° C | 37% | 1022.5 hPa | 0 mm | - | 28 W/m² | - |
| 1777397133 | 14.44° C | 37% | 1022.4 hPa | 0 mm | - | 28 W/m² | - |
| 1777395931 | 15° C | 35% | 1022.2 hPa | 0 mm | - | 62 W/m² | - |
| 1777395629 | 15.56° C | 35% | 1022.1 hPa | 0 mm | - | 158 W/m² | - |
| 1777394747 | 15.56° C | 34% | 1022.1 hPa | 0 mm | - | 250 W/m² | - |
| 1777394126 | 16.11° C | 33% | 1022.1 hPa | 0 mm | - | 276 W/m² | - |
| 1777392022 | 16.11° C | 33% | 1022.1 hPa | 0 mm | - | 366 W/m² | - |
| 1777391720 | 16.11° C | 32% | 1022.1 hPa | 0 mm | - | 378 W/m² | - |
| 1777390819 | 16.67° C | 35% | 1022.1 hPa | 0 mm | - | 415 W/m² | - |
| 1777389918 | 16.11° C | 33% | 1022.1 hPa | 0 mm | - | 450 W/m² | - |
| 1777389620 | 16.67° C | 36% | 1022.1 hPa | 0 mm | - | 459 W/m² | - |
| 1777388717 | 16.11° C | 35% | 1022.1 hPa | 0 mm | - | 494 W/m² | - |
| 1777386610 | 16.11° C | 38% | 1022.3 hPa | 0 mm | - | 563 W/m² | - |
| 1777379763 | 15.56° C | 40% | 1022.7 hPa | 0 mm | - | 733 W/m² | - |
| 1777379474 | 15.56° C | 40% | 1022.7 hPa | 0 mm | - | 737 W/m² | - |
| 1777378560 | 15° C | 42% | 1022.8 hPa | 0 mm | - | 749 W/m² | - |
* Rain latest hour (hover to see other rain measurements)
** Current wind speed in m/s (hover to see current wind gust speed)